LOWS 210250Z AUTO 19002KT 9999 BKN050 09/09 Q1024 LOWS 210220Z AUTO VRB02KT 9999 FEW005 BKN050 09/09 Q1024 LOWS 210150Z AUTO VRB02KT 9999 BKN050 09/09 Q1024 LOWS 210120Z AUTO 16004KT 9999 FEW044 BKN050 09/09 Q1023 LOWS 210050Z AUTO 17004KT 9999 FEW048 OVC050 09/09 Q1024 LOWS 210020Z AUTO 15003KT 9999 FEW026 BKN050 09/09 Q1024 LOWS 202350Z AUTO VRB02KT 9999 FEW026 BKN060 10/09 Q1023 LOWS 202320Z 16004KT 9999 OVC060 10/09 Q1023 NOSIG LOWS 202250Z 20005KT 9999 FEW026 OVC060 11/10 Q1023 NOSIG LOWS 202220Z 15002KT 9999 FEW040 BKN060 11/10 Q1023 NOSIG LOWS 202150Z 17003KT 9999 FEW040 BKN060 11/10 Q1023 NOSIG LOWS 202120Z 00000KT 9999 FEW010 SCT038 BKN050 12/10 Q1023 NOSIG LOWS 202050Z VRB02KT 9999 FEW032 SCT038 BKN055 11/10 Q1023 NOSIG LOWS 202020Z 20003KT 9999 FEW032 SCT040 BKN055 11/10 Q1023 NOSIG LOWS 201950Z 16003KT 9999 FEW032 SCT040 BKN055 11/11 Q1022 NOSIG LOWS 201920Z VRB02KT 9999 FEW032 SCT040 BKN048 11/11 Q1022 NOSIG LOWS 201850Z 20002KT 9999 FEW032 BKN048 12/11 Q1022 NOSIG LOWS 201820Z 17003KT 9999 FEW032 BKN048 12/10 Q1022 NOSIG LOWS 201750Z 17003KT 9999 FEW032 BKN048 12/11 Q1021 NOSIG LOWS 201720Z 22003KT 160V240 9999 FEW032 BKN048 12/11 Q1021 NOSIG LOWS 201650Z 24003KT 9999 FEW032 OVC050 13/10 Q1021 NOSIG LOWS 201620Z 25004KT 9999 FEW030 SCT038 BKN046 13/10 Q1021 NOSIG LOWS 201550Z 24004KT 9999 FEW024 BKN036 13/10 Q1020 NOSIG LOWS 201520Z 25004KT 9999 FEW015 BKN032 13/10 Q1020 NOSIG LOWS 201450Z 27003KT 220V310 9999 FEW020 BKN028 13/10 Q1020 NOSIG LOWS 201420Z 24006KT 220V300 9999 FEW020 BKN030 13/10 Q1020 NOSIG LOWS 201350Z 24006KT 9999 FEW020 BKN030 13/10 Q1020 NOSIG LOWS 201320Z 23005KT 9999 FEW020 BKN030 13/10 Q1019 NOSIG LOWS 201250Z VRB03KT 9999 FEW020 BKN030 13/11 Q1019 NOSIG LOWS 201220Z 26003KT 210V330 9999 FEW019 SCT022 BKN028 13/09 Q1019 NOSIG LOWS 201150Z 32006KT 280V010 9999 FEW019 SCT022 BKN031 13/09 Q1019 NOSIG LOWS 201120Z 32005KT 290V360 9999 FEW019 BKN028 13/10 Q1019 NOSIG LOWS 201050Z 34005KT 320V020 9999 FEW018 SCT022 BKN030 14/10 Q1019 NOSIG LOWS 201020Z 33004KT 290V020 9999 FEW014 SCT019 BKN032 13/09 Q1019 NOSIG LOWS 200950Z 33005KT 9999 FEW016 SCT018 BKN040 13/10 Q1019 NOSIG LOWS 200920Z 31004KT 270V360 9999 FEW012 SCT015 BKN026 13/10 Q1019 NOSIG LOWS 200850Z 33003KT 290V010 9999 FEW009 SCT012 BKN026 13/10 Q1019 NOSIG LOWS 200820Z 32004KT 9999 FEW009 SCT014 BKN024 12/11 Q1019 NOSIG LOWS 200750Z 33004KT 9999 FEW005 SCT009 BKN017 12/11 Q1019 NOSIG LOWS 200720Z 33005KT 9999 FEW006 SCT013 BKN020 12/11 Q1018 NOSIG LOWS 200650Z 29003KT 9999 FEW004 SCT013 BKN025 11/11 Q1018 NOSIG LOWS 200620Z 33003KT 9999 -DZ FEW004 SCT009 BKN015 11/10 Q1018 NOSIG LOWS 200550Z VRB02KT 9999 FEW004 SCT011 BKN017 11/10 Q1018 NOSIG LOWS 200520Z 31003KT 9999 FEW004 SCT013 BKN020 11/10 Q1018 NOSIG LOWS 200450Z 31005KT 9999 -RADZ FEW003 BKN020 11/10 Q1017 NOSIG LOWS 200420Z 31007KT 6000 -RADZ FEW003 SCT004 BKN024 11/10 Q1017 NOSIG LOWS 200350Z 32008KT 9999 -DZRA FEW016 BKN018 11/10 Q1017 NOSIG LOWS 200320Z AUTO 31006KT 9999 -RA FEW015 BKN018 12/10 Q1016 REDZ LOWS 200250Z AUTO 32006KT 9999 FEW013 BKN016 12/10 Q1016 LOWS 200220Z AUTO 31003KT 270V340 9999 FEW015 BKN019 12/11 Q1016 LOWS 200150Z AUTO VRB02KT 9999 FEW020 BKN024 12/11 Q1016 LOWS 200120Z AUTO 32004KT 230V350 9999 FEW017 BKN024 12/11 Q1016 LOWS 200050Z AUTO 28004KT 9999 BKN022 12/10 Q1016 LOWS 200020Z AUTO 29005KT 9999 FEW007 BKN020 12/11 Q1016 LOWS 192350Z AUTO 30005KT 9999 -RA SCT009 BKN022 12/11 Q1015 LOWS 192320Z AUTO 35004KT 320V020 9999 -RA FEW008 SCT046 BKN060 12/11 Q1015 LOWS 192250Z AUTO 29005KT 9999 -RA FEW015 BKN050 12/11 Q1015 REDZ LOWS 192220Z AUTO 33005KT 300V360 9999 DZ FEW019 SCT028 BKN042 13/11 Q1015 LOWS 192150Z AUTO 29006KT 9999 -RA FEW018 SCT022 BKN046 13/11 Q1015 LOWS 192120Z AUTO 35005KT 320V030 9999 -RA FEW020 SCT036 BKN044 14/11 Q1014 LOWS 192050Z VRB02KT 9999 FEW025 BKN035 14/11 Q1014 TEMPO RA LOWS 192020Z 03006KT 9999 FEW025 BKN045 15/10 Q1014 NOSIG LOWS 191950Z 06009KT 9999 FEW025 BKN045 15/10 Q1014 NOSIG LOWS 191920Z 06010KT 9999 FEW025 BKN045 16/10 Q1014 TEMPO RA LOWS 191850Z 02007KT 350V060 9999 FEW025 BKN045 16/11 Q1013 TEMPO RA LOWS 191820Z 34005KT 320V020 9999 FEW025 BKN045 16/12 Q1013 TEMPO RA LOWS 191750Z 30002KT 9999 FEW025 BKN045 16/12 Q1013 BECMG RA LOWS 191720Z VRB02KT 9999 FEW025 BKN045 16/12 Q1013 BECMG FM1800 RA LOWS 191650Z 32004KT 270V350 9999 FEW025 BKN045 17/11 Q1013 BECMG FM1800 RA LOWS 191620Z 01004KT 9999 FEW025 BKN045 17/11 Q1012 NOSIG LOWS 191550Z 03003KT 350V060 9999 FEW025 BKN042 17/11 Q1012 NOSIG LOWS 191520Z 35005KT 310V020 9999 FEW025 BKN035 17/11 Q1012 NOSIG

METAR Messwerte

Zurück zur Übersicht

Ort
m ü. NN
Zeit Temperatur Taupunkt Rel.
Luftfeuchte
Luftdruck:
Altimeter
NN
Station
Wind in Beaufort
(Knoten)
Sichtweite
(Meter)
Wolken
(Meter über Grund)
Wettererscheinung
Salzburg
450
Di 21.09. 04:5099100 %1024
1025
971
S 1 (2)>= 10000Stark bewölkt (1500) 
Salzburg
450
Di 21.09. 04:2099100 %1024
1025
971
Uml 1 (2)>= 10000Stark bewölkt (1500)
Leicht bewölkt (150)
 
Salzburg
450
Di 21.09. 03:5099100 %1024
1025
971
Uml 1 (2)>= 10000Stark bewölkt (1500) 
Salzburg
450
Di 21.09. 03:2099100 %1023
1024
970
SSO 2 (4)>= 10000Stark bewölkt (1500)
Leicht bewölkt (1300)
 
Salzburg
450
Di 21.09. 02:5099100 %1024
1025
971
S 2 (4)>= 10000Bedeckt (1500)
Leicht bewölkt (1500)
 
Salzburg
450
Di 21.09. 02:2099100 %1024
1025
971
SSO 2 (3)>= 10000Stark bewölkt (1500)
Leicht bewölkt (790)
 
Salzburg
450
Di 21.09. 01:5010993 %1023
1024
970
Uml 1 (2)>= 10000Stark bewölkt (1800)
Leicht bewölkt (790)
 
Salzburg
450
Di 21.09. 01:2010993 %1023
1024
970
SSO 2 (4)>= 10000Bedeckt (1800) 
Salzburg
450
Di 21.09. 00:50111094 %1023
1024
970
SSW 2 (5)>= 10000Bedeckt (1800)
Leicht bewölkt (790)
 
Salzburg
450
Di 21.09. 00:20111094 %1023
1024
970
SSO 1 (2)>= 10000Stark bewölkt (1800)
Leicht bewölkt (1200)
 
Salzburg
450
Mo 20.09. 23:50111094 %1023
1024
970
S 2 (3)>= 10000Stark bewölkt (1800)
Leicht bewölkt (1200)
 
Salzburg
450
Mo 20.09. 23:20121088 %1023
1024
970
Windstill>= 10000Stark bewölkt (1500)
Wolkig (1200)
Leicht bewölkt (300)
 
Salzburg
450
Mo 20.09. 22:50111094 %1023
1024
970
Uml 1 (2)>= 10000Stark bewölkt (1700)
Wolkig (1200)
Leicht bewölkt (980)
 
Salzburg
450
Mo 20.09. 22:20111094 %1023
1024
970
SSW 2 (3)>= 10000Stark bewölkt (1700)
Wolkig (1200)
Leicht bewölkt (980)
 
Salzburg
450
Mo 20.09. 21:501111100 %1022
1023
969
SSO 2 (3)>= 10000Stark bewölkt (1700)
Wolkig (1200)
Leicht bewölkt (980)
 
Salzburg
450
Mo 20.09. 21:201111100 %1022
1023
969
Uml 1 (2)>= 10000Stark bewölkt (1500)
Wolkig (1200)
Leicht bewölkt (980)
 
Salzburg
450
Mo 20.09. 20:50121194 %1022
1023
969
SSW 1 (2)>= 10000Stark bewölkt (1500)
Leicht bewölkt (980)
 
Salzburg
450
Mo 20.09. 20:20121088 %1022
1023
969
S 2 (3)>= 10000Stark bewölkt (1500)
Leicht bewölkt (980)
 
Salzburg
450
Mo 20.09. 19:50121194 %1021
1022
968
S 2 (3)>= 10000Stark bewölkt (1500)
Leicht bewölkt (980)
 
Salzburg
450
Mo 20.09. 19:20121194 %1021
1022
968
SW 2 (3)
SSO - WSW
>= 10000Stark bewölkt (1500)
Leicht bewölkt (980)
 
Salzburg
450
Mo 20.09. 18:50131082 %1021
1021
968
WSW 2 (3)>= 10000Bedeckt (1500)
Leicht bewölkt (980)
 
Salzburg
450
Mo 20.09. 18:20131082 %1021
1021
968
WSW 2 (4)>= 10000Stark bewölkt (1400)
Wolkig (1200)
Leicht bewölkt (910)
 
Salzburg
450
Mo 20.09. 17:50131082 %1020
1020
967
WSW 2 (4)>= 10000Stark bewölkt (1100)
Leicht bewölkt (730)
 
Salzburg
450
Mo 20.09. 17:20131082 %1020
1020
967
WSW 2 (4)>= 10000Stark bewölkt (980)
Leicht bewölkt (460)
 
Salzburg
450
Mo 20.09. 16:50131082 %1020
1020
967
W 2 (3)
SW - NW
>= 10000Stark bewölkt (850)
Leicht bewölkt (610)
 
Salzburg
450
Mo 20.09. 16:20131082 %1020
1020
967
WSW 2 (6)
SW - WNW
>= 10000Stark bewölkt (910)
Leicht bewölkt (610)
 
Salzburg
450
Mo 20.09. 15:50131082 %1020
1020
967
WSW 2 (6)>= 10000Stark bewölkt (910)
Leicht bewölkt (610)
 
Salzburg
450
Mo 20.09. 15:20131082 %1019
1019
966
SW 2 (5)>= 10000Stark bewölkt (910)
Leicht bewölkt (610)
 
Salzburg
450
Mo 20.09. 14:50131188 %1019
1019
966
Uml 2 (3)>= 10000Stark bewölkt (910)
Leicht bewölkt (610)
 
Salzburg
450
Mo 20.09. 14:2013977 %1019
1019
966
W 2 (3)
SSW - NNW
>= 10000Stark bewölkt (850)
Wolkig (670)
Leicht bewölkt (580)
 
Salzburg
450
Mo 20.09. 13:5013977 %1019
1019
966
NW 2 (6)
W - N
>= 10000Stark bewölkt (940)
Wolkig (670)
Leicht bewölkt (580)
 
Salzburg
450
Mo 20.09. 13:20131082 %1019
1019
966
NW 2 (5)
WNW - N
>= 10000Stark bewölkt (850)
Leicht bewölkt (580)
 
Salzburg
450
Mo 20.09. 12:50141077 %1019
1019
966
NNW 2 (5)
NW - NNO
>= 10000Stark bewölkt (910)
Wolkig (670)
Leicht bewölkt (550)
 
Salzburg
450
Mo 20.09. 12:2013977 %1019
1019
966
NNW 2 (4)
WNW - NNO
>= 10000Stark bewölkt (980)
Wolkig (580)
Leicht bewölkt (430)
 
Salzburg
450
Mo 20.09. 11:50131082 %1019
1019
966
NNW 2 (5)>= 10000Stark bewölkt (1200)
Wolkig (550)
Leicht bewölkt (490)
 
Salzburg
450
Mo 20.09. 11:20131082 %1019
1019
966
NW 2 (4)
W - N
>= 10000Stark bewölkt (790)
Wolkig (460)
Leicht bewölkt (370)
 
Salzburg
450
Mo 20.09. 10:50131082 %1019
1019
966
NNW 2 (3)
WNW - N
>= 10000Stark bewölkt (790)
Wolkig (370)
Leicht bewölkt (270)
 
Salzburg
450
Mo 20.09. 10:20121194 %1019
1020
966
NW 2 (4)>= 10000Stark bewölkt (730)
Wolkig (430)
Leicht bewölkt (270)
 
Salzburg
450
Mo 20.09. 09:50121194 %1019
1020
966
NNW 2 (4)>= 10000Stark bewölkt (520)
Wolkig (270)
Leicht bewölkt (150)
 
Salzburg
450
Mo 20.09. 09:20121194 %1018
1019
965
NNW 2 (5)>= 10000Stark bewölkt (610)
Wolkig (400)
Leicht bewölkt (180)
 
Salzburg
450
Mo 20.09. 08:501111100 %1018
1019
965
WNW 2 (3)>= 10000Stark bewölkt (760)
Wolkig (400)
Leicht bewölkt (120)
 
Salzburg
450
Mo 20.09. 08:20111094 %1018
1019
965
NNW 2 (3)>= 10000Stark bewölkt (460)
Wolkig (270)
Leicht bewölkt (120)
Nieselregen (schwach)
Salzburg
450
Mo 20.09. 07:50111094 %1018
1019
965
Uml 1 (2)>= 10000Stark bewölkt (520)
Wolkig (340)
Leicht bewölkt (120)
 
Salzburg
450
Mo 20.09. 07:20111094 %1018
1019
965
NW 2 (3)>= 10000Stark bewölkt (610)
Wolkig (400)
Leicht bewölkt (120)
 
Salzburg
450
Mo 20.09. 06:50111094 %1017
1018
964
NW 2 (5)>= 10000Stark bewölkt (610)
Leicht bewölkt (91)
Regen/Nieselregen (schwach)
Salzburg
450
Mo 20.09. 06:20111094 %1017
1018
964
NW 3 (7)6000Stark bewölkt (730)
Wolkig (120)
Leicht bewölkt (91)
Regen/Nieselregen (schwach)
Salzburg
450
Mo 20.09. 05:50111094 %1017
1018
964
NW 3 (8)>= 10000Stark bewölkt (550)
Leicht bewölkt (490)
Nieselregen/Regen (schwach)
Salzburg
450
Mo 20.09. 05:20121088 %1016
1017
963
NW 2 (6)>= 10000Stark bewölkt (550)
Leicht bewölkt (460)
Regen (schwach)
Salzburg
450
Mo 20.09. 04:50121088 %1016
1017
963
NW 2 (6)>= 10000Stark bewölkt (490)
Leicht bewölkt (400)
 
Salzburg
450
Mo 20.09. 04:20121194 %1016
1017
963
NW 2 (3)
W - NNW
>= 10000Stark bewölkt (580)
Leicht bewölkt (460)
 
Salzburg
450
Mo 20.09. 03:50121194 %1016
1017
963
Uml 1 (2)>= 10000Stark bewölkt (730)
Leicht bewölkt (610)
 
Salzburg
450
Mo 20.09. 03:20121194 %1016
1017
963
NW 2 (4)
SW - N
>= 10000Stark bewölkt (730)
Leicht bewölkt (520)
 
Salzburg
450
Mo 20.09. 02:50121088 %1016
1017
963
W 2 (4)>= 10000Stark bewölkt (670) 
Salzburg
450
Mo 20.09. 02:20121194 %1016
1017
963
WNW 2 (5)>= 10000Stark bewölkt (610)
Leicht bewölkt (210)
 
Salzburg
450
Mo 20.09. 01:50121194 %1015
1016
962
WNW 2 (5)>= 10000Stark bewölkt (670)
Wolkig (270)
Regen (schwach)
Salzburg
450
Mo 20.09. 01:20121194 %1015
1016
962
N 2 (4)
NW - NNO
>= 10000Stark bewölkt (1800)
Wolkig (1400)
Leicht bewölkt (240)
Regen (schwach)
Salzburg
450
Mo 20.09. 00:50121194 %1015
1016
962
WNW 2 (5)>= 10000Stark bewölkt (1500)
Leicht bewölkt (460)
Regen (schwach)
Salzburg
450
Mo 20.09. 00:20131188 %1015
1015
962
NNW 2 (5)
WNW - N
>= 10000Stark bewölkt (1300)
Wolkig (850)
Leicht bewölkt (580)
Nieselregen
Salzburg
450
So 19.09. 23:50131188 %1015
1015
962
WNW 2 (6)>= 10000Stark bewölkt (1400)
Wolkig (670)
Leicht bewölkt (550)
Regen (schwach)
Salzburg
450
So 19.09. 23:20141182 %1014
1014
961
N 2 (5)
NW - NNO
>= 10000Stark bewölkt (1300)
Wolkig (1100)
Leicht bewölkt (610)
Regen (schwach)
Salzburg
450
So 19.09. 22:50141182 %1014
1014
961
Uml 1 (2)>= 10000Stark bewölkt (1100)
Leicht bewölkt (760)
 Bald möglich: Regen
Salzburg
450
So 19.09. 22:20151072 %1014
1014
961
NNO 2 (6)>= 10000Stark bewölkt (1400)
Leicht bewölkt (760)
 
Salzburg
450
So 19.09. 21:50151072 %1014
1014
961
ONO 3 (9)>= 10000Stark bewölkt (1400)
Leicht bewölkt (760)
 
Salzburg
450
So 19.09. 21:20161068 %1014
1014
961
ONO 3 (10)>= 10000Stark bewölkt (1400)
Leicht bewölkt (760)
 Bald möglich: Regen
Salzburg
450
So 19.09. 20:50161172 %1013
1013
960
NNO 3 (7)
N - ONO
>= 10000Stark bewölkt (1400)
Leicht bewölkt (760)
 Bald möglich: Regen
Salzburg
450
So 19.09. 20:20161277 %1013
1013
960
NNW 2 (5)
NW - NNO
>= 10000Stark bewölkt (1400)
Leicht bewölkt (760)
 Bald möglich: Regen
Salzburg
450
So 19.09. 19:50161277 %1013
1013
960
WNW 1 (2)>= 10000Stark bewölkt (1400)
Leicht bewölkt (760)
 Bald Übergang zu: Regen
Salzburg
450
So 19.09. 19:20161277 %1013
1013
960
Uml 1 (2)>= 10000Stark bewölkt (1400)
Leicht bewölkt (760)
 Bald Übergang zu: Regen
Salzburg
450
So 19.09. 18:50171168 %1013
1013
960
NW 2 (4)
W - N
>= 10000Stark bewölkt (1400)
Leicht bewölkt (760)
 Bald Übergang zu: Regen
Salzburg
450
So 19.09. 18:20171168 %1012
1012
959
N 2 (4)>= 10000Stark bewölkt (1400)
Leicht bewölkt (760)
 
Salzburg
450
So 19.09. 17:50171168 %1012
1012
959
NNO 2 (3)
N - ONO
>= 10000Stark bewölkt (1300)
Leicht bewölkt (760)
 
Salzburg
450
So 19.09. 17:20171168 %1012
1012
959
N 2 (5)
NW - NNO
>= 10000Stark bewölkt (1100)
Leicht bewölkt (760)
 

Altimeter: Einstellung am Altimeter (Höhenmesser), die Höhe 0 muss auf diesen Luftdruckwert zeigen, damit das Gerät die Stationshöhe richtig anzeigt.

NN: Luftdruck reduziert auf "Normal Null", auf Meereshöhe, dieser von der Temperatur abhängige Wert wird bisweilen unkorrekt einfach als "Luftdruck" bezeichnet. Eigentlich nur eine fiktive Größe, die es erlaubt, Stationen auf unterschiedlichen Höhen miteinander zu vergleichen.

Station: Realer Luftdruck an der Station.